createdAt,value
2019-03-16T00:01:57.777Z,100829.63
2019-03-16T00:04:31.277Z,100832.22
2019-03-16T00:07:04.785Z,100836.57
2019-03-16T00:09:38.266Z,100830.95
2019-03-16T00:12:11.767Z,100832.30
2019-03-16T00:14:45.300Z,100838.38
2019-03-16T00:17:23.266Z,100837.53
2019-03-16T00:19:54.045Z,100745.34
2019-03-16T00:22:27.383Z,100844.48
2019-03-16T00:25:00.726Z,100835.40
2019-03-16T00:27:34.333Z,100836.73
2019-03-16T00:30:10.665Z,100837.61
2019-03-16T00:32:44.354Z,100840.19
2019-03-16T00:35:17.694Z,100839.33
2019-03-16T00:37:51.123Z,100841.09
2019-03-16T00:40:24.764Z,100846.28
2019-03-16T00:42:58.303Z,100841.08
2019-03-16T00:45:31.619Z,100851.46
2019-03-16T00:48:05.213Z,100851.04
2019-03-16T00:50:38.509Z,100851.48
2019-03-16T00:53:12.048Z,100850.22
2019-03-16T00:55:45.349Z,100857.58
2019-03-16T00:58:18.695Z,100853.27
2019-03-16T01:00:52.014Z,100856.70
2019-03-16T01:03:25.364Z,100845.48
2019-03-16T01:05:58.674Z,100851.13
2019-03-16T01:08:33.864Z,100847.66
2019-03-16T01:11:07.389Z,100842.48
2019-03-16T01:13:40.717Z,100848.55
2019-03-16T01:16:14.042Z,100848.56
2019-03-16T01:18:47.473Z,100846.38
2019-03-16T01:21:20.796Z,100854.61
2019-03-16T01:23:54.132Z,100852.91
2019-03-16T01:26:27.440Z,100851.20
2019-03-16T01:29:00.843Z,100861.16
2019-03-16T01:31:34.225Z,100862.43
2019-03-16T01:34:07.588Z,100856.38
2019-03-16T01:36:40.916Z,100847.30
2019-03-16T01:39:14.310Z,100850.34
2019-03-16T01:41:47.821Z,100855.98
2019-03-16T01:44:22.749Z,100860.30
2019-03-16T01:46:56.137Z,100848.20
2019-03-16T01:49:29.510Z,100849.08
2019-03-16T01:52:02.827Z,100859.04
2019-03-16T01:54:36.401Z,100851.67
2019-03-16T01:57:09.718Z,100850.81
2019-03-16T01:59:43.116Z,100841.78
2019-03-16T02:02:16.443Z,100841.34
2019-03-16T02:04:49.831Z,100824.91
2019-03-16T02:07:23.138Z,100815.81
2019-03-16T02:09:56.515Z,100820.58
2019-03-16T02:12:29.911Z,100824.04
2019-03-16T02:15:04.085Z,100830.98
2019-03-16T02:17:37.472Z,100822.31
2019-03-16T02:20:10.784Z,100808.05
2019-03-16T02:22:45.746Z,100806.33
2019-03-16T02:25:19.085Z,100808.94
2019-03-16T02:27:52.475Z,100811.55
2019-03-16T02:30:25.855Z,100802.03
2019-03-16T02:33:12.845Z,100806.34
2019-03-16T02:35:35.814Z,100810.25
2019-03-16T02:38:09.118Z,100797.73
2019-03-16T02:40:42.514Z,100800.75
2019-03-16T02:43:15.819Z,100800.34
2019-03-16T02:45:49.175Z,100801.66
2019-03-16T02:48:22.502Z,100803.37
2019-03-16T02:50:55.867Z,100805.53
2019-03-16T02:53:29.185Z,100802.94
2019-03-16T02:56:02.360Z,100800.36
2019-03-16T02:58:35.686Z,100799.92
2019-03-16T03:01:10.204Z,100794.75
2019-03-16T03:03:43.786Z,100793.91
2019-03-16T03:06:17.166Z,100799.97
2019-03-16T03:08:50.476Z,100800.39
2019-03-16T03:11:25.124Z,100795.66
2019-03-16T03:13:58.455Z,100797.37
2019-03-16T03:16:31.776Z,100795.65
2019-03-16T03:19:05.096Z,100800.39
2019-03-16T03:21:39.800Z,100793.93
2019-03-16T03:24:13.194Z,100796.09
2019-03-16T03:26:46.576Z,100787.48
2019-03-16T03:29:20.555Z,100786.16
2019-03-16T03:31:53.719Z,100788.75
2019-03-16T03:34:27.021Z,100783.14
2019-03-16T03:37:00.385Z,100777.54
2019-03-16T03:39:33.776Z,100776.66
2019-03-16T03:42:07.077Z,100773.20
2019-03-16T03:44:40.389Z,100763.29
2019-03-16T03:47:13.743Z,100768.05
2019-03-16T03:49:47.108Z,100765.46
2019-03-16T03:52:20.680Z,100762.87
2019-03-16T03:54:54.091Z,100764.62
2019-03-16T03:57:27.411Z,100761.15
2019-03-16T04:00:00.711Z,100740.83
2019-03-16T04:02:35.804Z,100731.75
2019-03-16T04:05:09.154Z,100732.63
2019-03-16T04:07:42.485Z,100727.02
2019-03-16T04:10:15.905Z,100733.08
2019-03-16T04:12:49.208Z,100727.47
2019-03-16T04:15:22.615Z,100721.86
2019-03-16T04:17:55.914Z,100728.78
2019-03-16T04:20:29.288Z,100714.52
2019-03-16T04:23:02.592Z,100713.62
2019-03-16T04:25:35.990Z,100704.55
2019-03-16T04:28:09.290Z,100706.72
2019-03-16T04:30:42.937Z,100711.91
2019-03-16T04:33:16.234Z,100709.77
2019-03-16T04:35:49.646Z,100707.59
2019-03-16T04:38:22.978Z,100706.30
2019-03-16T04:40:56.375Z,100706.27
2019-03-16T04:43:30.758Z,100703.27
2019-03-16T04:46:04.108Z,100698.47
2019-03-16T04:48:37.427Z,100700.59
2019-03-16T04:51:10.848Z,100697.91
2019-03-16T04:53:44.145Z,100700.88
2019-03-16T04:56:17.313Z,100701.20
2019-03-16T04:58:51.759Z,100695.91
2019-03-16T05:01:25.431Z,100686.70
2019-03-16T05:03:58.736Z,100697.86
2019-03-16T05:06:32.072Z,100692.06
2019-03-16T05:09:07.194Z,100686.73
2019-03-16T05:11:40.885Z,100680.03
2019-03-16T05:14:14.207Z,100675.06
2019-03-16T05:16:48.682Z,100677.46
2019-03-16T05:19:21.979Z,100680.74
2019-03-16T05:21:55.404Z,100685.73
2019-03-16T05:24:28.772Z,100678.55
2019-03-16T05:27:02.136Z,100675.77
2019-03-16T05:29:35.610Z,100676.45
2019-03-16T05:32:09.137Z,100677.08
2019-03-16T05:34:55.642Z,100664.41
2019-03-16T05:37:17.624Z,100659.92
2019-03-16T05:39:50.935Z,100658.93
2019-03-16T05:42:24.286Z,100660.16
2019-03-16T05:44:57.599Z,100654.92
2019-03-16T05:47:31.277Z,100664.85
2019-03-16T05:50:09.085Z,100659.23
2019-03-16T05:52:42.437Z,100652.31
2019-03-16T05:55:15.729Z,100654.92
2019-03-16T05:57:49.091Z,100637.17
2019-03-16T06:00:22.210Z,100652.38
2019-03-16T06:02:55.581Z,100655.50
2019-03-16T06:05:29.078Z,100647.35
2019-03-16T06:08:02.405Z,100647.83
2019-03-16T06:10:35.820Z,100633.58
2019-03-16T06:13:09.161Z,100627.14
2019-03-16T06:15:44.202Z,100622.38
2019-03-16T06:18:17.729Z,100612.45
2019-03-16T06:20:51.301Z,100606.42
2019-03-16T06:23:24.510Z,100600.42
2019-03-16T06:25:57.911Z,100590.05
2019-03-16T06:28:31.298Z,100579.23
2019-03-16T06:31:04.870Z,100578.03
2019-03-16T06:33:38.200Z,100572.00
2019-03-16T06:36:11.706Z,100558.99
2019-03-16T06:38:45.057Z,100562.94
2019-03-16T06:41:18.612Z,100552.97
2019-03-16T06:43:52.068Z,100541.77
2019-03-16T06:46:25.388Z,100535.68
2019-03-16T06:48:58.771Z,100545.16
2019-03-16T06:51:32.076Z,100538.28
2019-03-16T06:54:05.917Z,100536.57
2019-03-16T06:56:39.267Z,100536.57
2019-03-16T06:59:12.752Z,100532.22
2019-03-16T07:01:46.079Z,100536.64
2019-03-16T07:04:19.527Z,100537.49
2019-03-16T07:06:52.851Z,100532.77
2019-03-16T07:09:26.189Z,100535.44
2019-03-16T07:11:59.519Z,100532.84
2019-03-16T07:14:32.842Z,100532.88
2019-03-16T07:17:06.335Z,100531.64
2019-03-16T07:19:39.714Z,100530.78
2019-03-16T07:22:13.737Z,100536.47
2019-03-16T07:24:47.103Z,100546.91
2019-03-16T07:27:26.181Z,100548.23
2019-03-16T07:29:55.669Z,100544.33
2019-03-16T07:32:29.150Z,100544.81
2019-03-16T07:35:03.081Z,100542.69
2019-03-16T07:37:36.421Z,100542.27
2019-03-16T07:40:11.617Z,100558.83
2019-03-16T07:42:44.991Z,100551.91
2019-03-16T07:45:18.367Z,100542.43
2019-03-16T07:47:51.716Z,100538.56
2019-03-16T07:50:25.050Z,100528.61
2019-03-16T07:52:58.371Z,100527.34
2019-03-16T07:55:31.610Z,100526.48
2019-03-16T07:58:05.197Z,100526.55
2019-03-16T08:00:38.552Z,100525.27
2019-03-16T08:03:13.632Z,100524.00
2019-03-16T08:05:47.019Z,100523.62
2019-03-16T08:08:20.326Z,100522.33
2019-03-16T08:10:53.678Z,100517.56
2019-03-16T08:13:27.087Z,100517.19
2019-03-16T08:16:00.561Z,100517.25
2019-03-16T08:18:33.937Z,100508.59
2019-03-16T08:21:07.112Z,100508.62
2019-03-16T08:23:40.265Z,100504.34
2019-03-16T08:26:13.666Z,100506.50
2019-03-16T08:28:47.169Z,100502.53
2019-03-16T08:31:20.566Z,100502.09
2019-03-16T08:33:53.981Z,100504.25
2019-03-16T08:36:27.446Z,100499.81
2019-03-16T08:39:00.799Z,100499.72
2019-03-16T08:41:35.853Z,100503.88
2019-03-16T08:44:09.247Z,100510.55
2019-03-16T08:46:42.783Z,100508.61
2019-03-16T08:49:18.863Z,100487.66
2019-03-16T08:51:52.209Z,100486.61
2019-03-16T08:54:25.538Z,100490.34
2019-03-16T08:56:58.928Z,100491.56
2019-03-16T08:59:32.547Z,100486.73
2019-03-16T09:02:05.772Z,100494.87
2019-03-16T09:04:39.131Z,100500.48
2019-03-16T09:07:12.485Z,100485.64
2019-03-16T09:09:45.991Z,100488.24
2019-03-16T09:12:19.541Z,100480.43
2019-03-16T09:14:52.935Z,100466.52
2019-03-16T09:17:26.452Z,100487.31
2019-03-16T09:19:59.887Z,100498.13
2019-03-16T09:22:35.180Z,100494.59
2019-03-16T09:25:09.651Z,100490.69
2019-03-16T09:27:43.412Z,100483.37
2019-03-16T09:30:17.297Z,100464.81
2019-03-16T09:32:50.656Z,100472.18
2019-03-16T09:35:24.228Z,100471.32
2019-03-16T09:37:57.616Z,100468.27
2019-03-16T09:40:30.929Z,100470.47
2019-03-16T09:43:04.506Z,100464.45
2019-03-16T09:45:37.858Z,100473.59
2019-03-16T09:48:11.188Z,100473.63
2019-03-16T09:50:44.810Z,100483.59
2019-03-16T09:53:18.225Z,100470.58
2019-03-16T09:55:52.705Z,100477.55
2019-03-16T09:58:31.014Z,100479.78
2019-03-16T10:01:01.138Z,100478.95
2019-03-16T10:03:34.640Z,100474.20
2019-03-16T10:06:08.234Z,100381.11
2019-03-16T10:08:41.782Z,100457.80
2019-03-16T10:11:15.576Z,100449.59
2019-03-16T10:13:49.179Z,100458.74
2019-03-16T10:16:23.067Z,100454.84
2019-03-16T10:18:57.884Z,100460.08
2019-03-16T10:21:31.285Z,100452.80
2019-03-16T10:24:05.309Z,100453.69
2019-03-16T10:26:38.716Z,100445.92
2019-03-16T10:29:12.283Z,100446.36
2019-03-16T10:31:45.989Z,100450.78
2019-03-16T10:34:19.410Z,100449.97
2019-03-16T10:36:53.085Z,100447.33
2019-03-16T10:39:26.609Z,100455.98
2019-03-16T10:42:00.447Z,100448.70
2019-03-16T10:44:34.306Z,100458.22
2019-03-16T10:47:07.903Z,100453.87
2019-03-16T10:49:41.659Z,100449.19
2019-03-16T10:52:15.336Z,100452.30
2019-03-16T10:54:50.069Z,100458.40
2019-03-16T10:57:23.562Z,100457.58
2019-03-16T10:59:57.366Z,100447.17
2019-03-16T11:02:30.970Z,100452.00
2019-03-16T11:05:05.286Z,100438.52
2019-03-16T11:07:39.023Z,100440.16
2019-03-16T11:10:14.196Z,100458.33
2019-03-16T11:12:48.065Z,100437.52
2019-03-16T11:15:22.228Z,100443.61
2019-03-16T11:17:55.866Z,100450.11
2019-03-16T11:20:29.568Z,100450.11
2019-03-16T11:23:03.166Z,100437.07
2019-03-16T11:25:36.666Z,100424.92
2019-03-16T11:28:10.157Z,100421.88
2019-03-16T11:30:43.561Z,100417.97
2019-03-16T11:33:17.024Z,100393.26
2019-03-16T11:35:50.365Z,100409.27
2019-03-16T11:38:24.061Z,100408.38
2019-03-16T11:40:57.506Z,100409.72
2019-03-16T11:43:31.380Z,100402.77
2019-03-16T11:46:06.326Z,100405.30
2019-03-16T11:48:39.886Z,100405.70
2019-03-16T11:51:13.285Z,100413.92
2019-03-16T11:53:48.024Z,100421.72
2019-03-16T11:56:21.594Z,100416.11
2019-03-16T11:58:54.929Z,100421.31
2019-03-16T12:01:32.164Z,100416.96
2019-03-16T12:04:06.249Z,100432.98
2019-03-16T12:06:40.276Z,100401.80
2019-03-16T12:09:17.005Z,100407.00
2019-03-16T12:11:50.550Z,100387.09
2019-03-16T12:14:23.909Z,100409.23
2019-03-16T12:16:58.258Z,100396.30
2019-03-16T12:19:33.761Z,100394.59
2019-03-16T12:22:07.536Z,100391.10
2019-03-16T12:24:41.250Z,100382.45
2019-03-16T12:27:15.913Z,100395.97
2019-03-16T12:29:49.426Z,100402.95
2019-03-16T12:32:23.278Z,100402.11
2019-03-16T12:34:57.697Z,100389.99
2019-03-16T12:37:31.295Z,100376.17
2019-03-16T12:40:12.708Z,100371.86
2019-03-16T12:42:46.505Z,100376.24
2019-03-16T12:45:21.122Z,100352.87
2019-03-16T12:47:56.319Z,100363.28
2019-03-16T12:50:30.628Z,100365.95
2019-03-16T12:53:05.151Z,100349.50
2019-03-16T12:55:39.968Z,100354.70
2019-03-16T12:58:13.618Z,100342.59
2019-03-16T13:00:48.889Z,100344.38
2019-03-16T13:03:22.627Z,100350.46
2019-03-16T13:05:57.490Z,100364.77
2019-03-16T13:08:31.544Z,100346.12
2019-03-16T13:11:05.149Z,100351.28
2019-03-16T13:13:42.684Z,100341.70
2019-03-16T13:16:18.759Z,100313.05
2019-03-16T13:18:52.127Z,100339.39
2019-03-16T13:21:25.812Z,100321.55
2019-03-16T13:24:01.005Z,100322.25
2019-03-16T13:26:34.673Z,100313.43
2019-03-16T13:29:08.960Z,100321.11
2019-03-16T13:31:42.529Z,100330.42
2019-03-16T13:34:15.916Z,100323.38
2019-03-16T13:36:49.488Z,100316.75
2019-03-16T13:39:22.928Z,100313.57
2019-03-16T13:41:56.474Z,100316.61
2019-03-16T13:44:29.933Z,100319.09
2019-03-16T13:47:03.346Z,100298.20
2019-03-16T13:49:36.829Z,100292.47
2019-03-16T13:52:10.247Z,100285.47
2019-03-16T13:54:45.445Z,100280.66
2019-03-16T13:57:18.802Z,100280.61
2019-03-16T13:59:52.385Z,100269.80
2019-03-16T14:02:26.902Z,100286.28
2019-03-16T14:05:00.386Z,100292.78
2019-03-16T14:07:34.213Z,100278.52
2019-03-16T14:10:11.416Z,100283.80
2019-03-16T14:12:44.821Z,100276.23
2019-03-16T14:15:18.418Z,100279.01
2019-03-16T14:17:52.007Z,100287.68
2019-03-16T14:20:25.916Z,100279.88
2019-03-16T14:22:59.729Z,100283.33
2019-03-16T14:25:33.472Z,100276.41
2019-03-16T14:28:06.897Z,100273.77
2019-03-16T14:30:43.836Z,100270.31
2019-03-16T14:33:15.423Z,100275.97
2019-03-16T14:35:48.759Z,100276.41
2019-03-16T14:38:22.750Z,100254.74
2019-03-16T14:40:56.443Z,100229.66
2019-03-16T14:43:30.176Z,100246.16
2019-03-16T14:46:03.671Z,100244.02
2019-03-16T14:48:37.459Z,100241.87
2019-03-16T14:51:11.158Z,100236.70
2019-03-16T14:53:45.169Z,100238.05
2019-03-16T14:56:19.204Z,100242.40
2019-03-16T14:58:53.013Z,100229.47
2019-03-16T15:01:26.464Z,100223.37
2019-03-16T15:04:00.792Z,100221.66
2019-03-16T15:06:34.653Z,100215.17
2019-03-16T15:09:10.139Z,100222.16
2019-03-16T15:11:43.687Z,100226.97
2019-03-16T15:14:21.964Z,100219.56
2019-03-16T15:16:54.358Z,100217.86
2019-03-16T15:19:28.040Z,100223.95
2019-03-16T15:22:01.794Z,100206.23
2019-03-16T15:24:35.898Z,100202.34
2019-03-16T15:27:10.955Z,100191.08
2019-03-16T15:29:46.612Z,100193.69
2019-03-16T15:32:20.032Z,100195.48
2019-03-16T15:34:54.390Z,100191.58
2019-03-16T15:37:28.385Z,100174.75
2019-03-16T15:40:02.363Z,100188.20
2019-03-16T15:42:35.813Z,100202.52
2019-03-16T15:45:18.423Z,100181.30
2019-03-16T15:47:51.904Z,100175.64
2019-03-16T15:50:25.211Z,100173.89
2019-03-16T15:52:58.688Z,100178.20
2019-03-16T15:55:33.813Z,100175.11
2019-03-16T15:58:08.863Z,100174.26
2019-03-16T16:00:42.558Z,100175.16
2019-03-16T16:03:16.160Z,100171.66
2019-03-16T16:05:50.226Z,100158.73
2019-03-16T16:08:24.493Z,100144.89
2019-03-16T16:11:01.253Z,100078.05
2019-03-16T16:13:33.535Z,100156.27
2019-03-16T16:16:08.289Z,100161.08
2019-03-16T16:18:42.363Z,100143.81
2019-03-16T16:21:15.858Z,100143.36
2019-03-16T16:23:49.979Z,100150.36
2019-03-16T16:26:23.481Z,100149.95
2019-03-16T16:28:57.077Z,100140.89
2019-03-16T16:31:30.800Z,100147.84
2019-03-16T16:34:04.549Z,100140.05
2019-03-16T16:36:38.604Z,100136.23
2019-03-16T16:39:14.349Z,100141.03
2019-03-16T16:41:47.585Z,100133.23
2019-03-16T16:44:21.057Z,100133.68
2019-03-16T16:46:54.743Z,100134.58
2019-03-16T16:49:28.222Z,100131.98
2019-03-16T16:52:01.720Z,100116.38
2019-03-16T16:54:37.678Z,100120.72
2019-03-16T16:57:11.213Z,100116.91
2019-03-16T16:59:44.600Z,100113.86
2019-03-16T17:02:18.410Z,100110.77
2019-03-16T17:04:52.256Z,100115.47
2019-03-16T17:07:26.705Z,100105.44
2019-03-16T17:10:01.173Z,100111.00
2019-03-16T17:12:34.828Z,100107.89
2019-03-16T17:15:11.145Z,100101.75
2019-03-16T17:17:45.448Z,100095.20
2019-03-16T17:20:20.247Z,100093.36
2019-03-16T17:22:54.061Z,100111.02
2019-03-16T17:25:27.474Z,100099.63
2019-03-16T17:28:01.020Z,100108.14
2019-03-16T17:30:34.827Z,100103.64
2019-03-16T17:33:08.763Z,100118.70
2019-03-16T17:35:42.433Z,100083.48
2019-03-16T17:38:16.447Z,100077.43
2019-03-16T17:40:49.948Z,100095.55
2019-03-16T17:43:23.448Z,100095.10
2019-03-16T17:45:56.996Z,100089.03
2019-03-16T17:48:30.518Z,100080.23
2019-03-16T17:51:04.179Z,100077.19
2019-03-16T17:53:39.552Z,100084.98
2019-03-16T17:56:13.296Z,100076.33
2019-03-16T17:58:46.893Z,100073.28
2019-03-16T18:01:20.244Z,100071.13
2019-03-16T18:03:54.916Z,100065.42
2019-03-16T18:06:28.691Z,100060.23
2019-03-16T18:09:02.225Z,100064.95
2019-03-16T18:11:37.567Z,100055.29
2019-03-16T18:14:10.870Z,100053.83
2019-03-16T18:16:44.297Z,100048.36
2019-03-16T18:19:18.451Z,100048.09
2019-03-16T18:21:51.923Z,100061.19
2019-03-16T18:24:26.408Z,100060.79
2019-03-16T18:26:59.899Z,100059.99
2019-03-16T18:29:34.563Z,100053.07
2019-03-16T18:32:08.510Z,100057.80
2019-03-16T18:34:42.088Z,100052.09
2019-03-16T18:37:15.487Z,100050.78
2019-03-16T18:39:49.161Z,100049.83
2019-03-16T18:42:22.598Z,100042.09
2019-03-16T18:44:56.267Z,100031.67
2019-03-16T18:47:29.896Z,100033.94
2019-03-16T18:50:05.475Z,100033.67
2019-03-16T18:52:38.703Z,100033.28
2019-03-16T18:55:12.872Z,100031.16
2019-03-16T18:57:47.057Z,100017.06
2019-03-16T19:00:20.485Z,100018.15
2019-03-16T19:02:53.841Z,100021.09
2019-03-16T19:05:27.236Z,100021.06
2019-03-16T19:08:00.905Z,100015.35
2019-03-16T19:10:34.359Z,100008.76
2019-03-16T19:13:08.037Z,100013.01
2019-03-16T19:15:41.957Z,100005.69
2019-03-16T19:18:15.476Z,100000.80
2019-03-16T19:20:48.875Z,99993.59
2019-03-16T19:23:22.268Z,99988.66
2019-03-16T19:25:55.776Z,99979.52
2019-03-16T19:28:29.364Z,99975.36
2019-03-16T19:31:02.978Z,99985.03
2019-03-16T19:33:36.507Z,99987.73
2019-03-16T19:36:10.137Z,99986.10
2019-03-16T19:38:43.774Z,99980.55
2019-03-16T19:41:17.043Z,99973.36
2019-03-16T19:43:50.583Z,99970.58
2019-03-16T19:46:24.288Z,99963.75
2019-03-16T19:48:57.785Z,99963.42
2019-03-16T19:51:31.303Z,99959.56
2019-03-16T19:54:04.745Z,99954.95
2019-03-16T19:56:39.328Z,99954.56
2019-03-16T19:59:12.911Z,99947.58
2019-03-16T20:01:46.902Z,99952.86
2019-03-16T20:04:20.302Z,99949.80
2019-03-16T20:06:54.127Z,99947.77
2019-03-16T20:09:27.695Z,99933.50
2019-03-16T20:12:01.487Z,99939.51
2019-03-16T20:14:36.145Z,99922.54
2019-03-16T20:17:09.540Z,99931.87
2019-03-16T20:19:43.314Z,99931.08
2019-03-16T20:22:16.856Z,99927.59
2019-03-16T20:24:51.656Z,99928.11
2019-03-16T20:27:25.170Z,99922.88
2019-03-16T20:29:58.847Z,99907.68
2019-03-16T20:32:33.403Z,99909.05
2019-03-16T20:35:08.526Z,99900.52
2019-03-16T20:37:41.943Z,99904.11
2019-03-16T20:40:17.077Z,99892.58
2019-03-16T20:42:50.661Z,99885.33
2019-03-16T20:45:24.147Z,99878.84
2019-03-16T20:47:57.705Z,99876.81
2019-03-16T20:50:31.206Z,99873.02
2019-03-16T20:53:04.987Z,99869.59
2019-03-16T20:55:38.385Z,99867.08
2019-03-16T20:58:11.770Z,99857.64
2019-03-16T21:00:45.205Z,99849.03
2019-03-16T21:03:19.268Z,99856.98
2019-03-16T21:05:52.848Z,99853.58
2019-03-16T21:08:26.378Z,99847.55
2019-03-16T21:10:59.658Z,99846.36
2019-03-16T21:13:33.482Z,99845.58
2019-03-16T21:16:06.982Z,99830.80
2019-03-16T21:18:40.434Z,99831.72
2019-03-16T21:21:13.890Z,99824.53
2019-03-16T21:23:47.452Z,99821.10
2019-03-16T21:26:20.907Z,99818.22
2019-03-16T21:28:54.301Z,99805.25
2019-03-16T21:31:27.547Z,99813.22
2019-03-16T21:34:01.079Z,99811.98
2019-03-16T21:36:41.470Z,99805.97
2019-03-16T21:39:10.423Z,99811.64
2019-03-16T21:41:44.510Z,99806.12
2019-03-16T21:44:18.257Z,99809.33
2019-03-16T21:46:51.793Z,99804.23
2019-03-16T21:49:25.636Z,99807.81
2019-03-16T21:51:59.026Z,99801.05
2019-03-16T21:54:32.464Z,99792.98
2019-03-16T21:57:07.456Z,99801.31
2019-03-16T21:59:40.911Z,99799.67
2019-03-16T22:02:14.258Z,99796.61
2019-03-16T22:04:47.795Z,99800.30
2019-03-16T22:07:21.251Z,99789.02
2019-03-16T22:09:54.694Z,99786.95
2019-03-16T22:12:28.325Z,99784.02
2019-03-16T22:15:02.096Z,99779.34
2019-03-16T22:17:35.644Z,99787.73
2019-03-16T22:20:13.789Z,99782.13
2019-03-16T22:22:47.840Z,99779.97
2019-03-16T22:25:21.152Z,99776.27
2019-03-16T22:27:54.604Z,99775.41
2019-03-16T22:30:28.047Z,99779.41
2019-03-16T22:33:01.596Z,99697.28
2019-03-16T22:35:34.882Z,99765.25
2019-03-16T22:38:08.440Z,99765.70
2019-03-16T22:40:42.110Z,99773.52
2019-03-16T22:43:15.765Z,99767.99
2019-03-16T22:45:49.306Z,99771.11
2019-03-16T22:48:22.716Z,99762.50
2019-03-16T22:50:56.807Z,99763.80
2019-03-16T22:53:31.615Z,99760.35
2019-03-16T22:56:05.159Z,99755.17
2019-03-16T22:58:38.801Z,99744.87
2019-03-16T23:01:12.081Z,99713.31
2019-03-16T23:03:45.690Z,99703.80
2019-03-16T23:06:19.188Z,99698.66
2019-03-16T23:08:52.671Z,99700.47
2019-03-16T23:11:26.148Z,99700.13
2019-03-16T23:14:01.257Z,99692.33
2019-03-16T23:16:34.862Z,99700.27
2019-03-16T23:19:08.319Z,99700.72
2019-03-16T23:21:41.783Z,99688.70
2019-03-16T23:24:15.374Z,99692.66
2019-03-16T23:26:48.766Z,99693.11
2019-03-16T23:29:22.690Z,99686.27
2019-03-16T23:31:56.196Z,99671.58
2019-03-16T23:34:29.645Z,99661.20
2019-03-16T23:37:04.571Z,99663.85
2019-03-16T23:39:39.501Z,99658.77
2019-03-16T23:42:12.958Z,99655.31
2019-03-16T23:44:46.518Z,99648.38
2019-03-16T23:47:20.137Z,99647.13
2019-03-16T23:49:53.531Z,99646.73
2019-03-16T23:52:27.163Z,99633.00
2019-03-16T23:55:00.657Z,99629.55
2019-03-16T23:57:35.671Z,99624.81
